createdAt,value
2023-02-05T00:11:29.948Z,3.70
2023-02-05T00:31:35.872Z,3.13
2023-02-05T00:51:41.643Z,2.52
2023-02-05T01:11:47.479Z,2.57
2023-02-05T01:31:53.312Z,2.95
2023-02-05T01:51:59.131Z,2.99
2023-02-05T02:12:04.847Z,5.05
2023-02-05T02:32:10.660Z,2.81
2023-02-05T02:52:16.386Z,3.16
2023-02-05T03:12:22.058Z,2.67
2023-02-05T03:32:27.760Z,2.88
2023-02-05T03:52:33.448Z,2.29
2023-02-05T04:12:39.157Z,2.18
2023-02-05T04:32:44.833Z,2.39
2023-02-05T04:52:50.569Z,2.47
2023-02-05T05:12:56.432Z,2.82
2023-02-05T05:33:02.192Z,4.59
2023-02-05T05:53:08.053Z,3.81
2023-02-05T06:13:13.745Z,3.31
2023-02-05T06:33:19.675Z,3.45
2023-02-05T06:53:25.434Z,3.43
2023-02-05T07:13:31.212Z,3.70
2023-02-05T07:33:36.980Z,4.03
2023-02-05T07:53:42.928Z,5.24
2023-02-05T08:13:48.590Z,5.04
2023-02-05T08:33:54.312Z,4.22
2023-02-05T08:54:00.030Z,4.17
2023-02-05T09:14:05.778Z,4.23
2023-02-05T09:34:11.525Z,3.56
2023-02-05T09:54:17.196Z,3.15
2023-02-05T10:14:22.934Z,3.67
2023-02-05T10:34:30.707Z,3.92
2023-02-05T10:54:36.436Z,3.50
2023-02-05T11:14:42.173Z,2.87
2023-02-05T11:34:47.844Z,2.91
2023-02-05T11:54:53.684Z,2.80
2023-02-05T12:14:59.378Z,2.58
2023-02-05T12:35:05.110Z,2.77
2023-02-05T12:55:10.803Z,4.37
2023-02-05T13:15:16.491Z,3.37
2023-02-05T13:35:22.148Z,3.51
2023-02-05T13:55:27.867Z,2.99
2023-02-05T14:15:33.836Z,3.06
2023-02-05T14:35:39.239Z,2.80
2023-02-05T14:55:45.015Z,4.14
2023-02-05T15:15:51.006Z,2.67
2023-02-05T15:35:56.677Z,2.61
2023-02-05T15:56:02.423Z,4.72
2023-02-05T16:16:08.153Z,3.73
2023-02-05T16:36:13.830Z,4.19
2023-02-05T16:56:19.672Z,4.63
2023-02-05T17:16:25.542Z,5.85
2023-02-05T17:36:31.169Z,8.53
2023-02-05T17:56:37.031Z,5.86
2023-02-05T18:16:42.827Z,9.20
2023-02-05T18:36:48.516Z,9.39
2023-02-05T18:56:54.327Z,8.22
2023-02-05T19:17:00.076Z,8.59
2023-02-05T19:37:05.863Z,8.10
2023-02-05T19:57:11.744Z,8.70
2023-02-05T20:17:18.423Z,8.89
2023-02-05T20:37:24.210Z,7.53
2023-02-05T20:57:29.956Z,7.26
2023-02-05T21:17:35.783Z,6.88
2023-02-05T21:37:41.540Z,5.87
2023-02-05T21:57:47.381Z,6.56
2023-02-05T22:17:53.187Z,6.27
2023-02-05T22:37:58.961Z,6.66
2023-02-05T22:58:04.693Z,6.54
2023-02-05T23:18:10.411Z,5.87
2023-02-05T23:38:16.168Z,5.53
2023-02-05T23:58:21.960Z,5.45
